Time;durP1;ratioP1;P1;durP2;ratioP2;P2;SDS_P1;SDS_P2;PMS_P1;PMS_P2;Temp;Humidity;BMP_temperature;BMP_pressure;BME280_temperature;BME280_humidity;BME280_pressure;Samples;Min_cycle;Max_cycle;Signal;HPM_P1;HPM_P2
2023/02/21 02:13:50;;;;;;;13.87;9.60;;;9.60;99.90;;;;;;4976409;28;20475;-56
2023/02/21 02:16:52;;;;;;;13.88;8.80;;;9.60;99.90;;;;;;4974891;28;20258;-56
2023/02/21 02:19:52;;;;;;;12.60;9.40;;;9.50;99.90;;;;;;4974832;28;20534;-53
2023/02/21 02:22:41;;;;;;;11.52;7.82;;;9.50;99.90;;;;;;4969962;28;20045;-54
2023/02/21 02:25:27;;;;;;;12.98;9.30;;;9.60;99.90;;;;;;4975801;28;20031;-51
2023/02/21 02:28:31;;;;;;;13.30;9.43;;;9.70;99.90;;;;;;4967390;28;20096;-54
2023/02/21 02:31:29;;;;;;;11.68;8.68;;;9.60;99.90;;;;;;4975126;28;20110;-58
2023/02/21 02:34:38;;;;;;;10.98;8.57;;;9.70;99.90;;;;;;4974399;28;20621;-53
2023/02/21 02:37:45;;;;;;;12.00;8.80;;;9.70;99.90;;;;;;4965446;28;20102;-55
2023/02/21 02:40:34;;;;;;;12.10;8.88;;;9.70;99.90;;;;;;4970261;28;20023;-53
2023/02/21 02:43:33;;;;;;;13.32;9.15;;;9.70;99.90;;;;;;4956788;28;20118;-58
2023/02/21 02:46:25;;;;;;;13.00;9.57;;;9.70;99.90;;;;;;4955347;29;20053;-56
2023/02/21 02:49:20;;;;;;;13.32;10.38;;;9.70;99.90;;;;;;4972189;28;20039;-51
2023/02/21 02:52:08;;;;;;;14.02;10.45;;;9.70;99.90;;;;;;4975580;28;20074;-56
2023/02/21 02:55:03;;;;;;;17.50;10.82;;;9.70;99.90;;;;;;4965228;28;20119;-57
2023/02/21 02:57:51;;;;;;;15.68;11.10;;;9.70;99.90;;;;;;4974350;28;20033;-53
2023/02/21 03:00:40;;;;;;;15.07;11.15;;;9.60;99.90;;;;;;4975331;28;20047;-53
2023/02/21 03:03:40;;;;;;;16.73;12.20;;;9.70;99.90;;;;;;4976304;28;20081;-58
2023/02/21 03:06:46;;;;;;;15.52;11.52;;;9.70;99.90;;;;;;4959421;28;20019;-55
2023/02/21 03:09:46;;;;;;;15.23;11.35;;;9.70;99.90;;;;;;4960672;28;20023;-54
2023/02/21 03:12:37;;;;;;;16.63;11.65;;;9.60;99.90;;;;;;4973623;28;20415;-55
2023/02/21 03:15:49;;;;;;;16.80;12.82;;;9.70;99.90;;;;;;4975240;28;20221;-55
2023/02/21 03:18:43;;;;;;;16.80;12.30;;;9.70;99.90;;;;;;4955326;29;20106;-55
2023/02/21 03:21:45;;;;;;;17.13;13.13;;;9.80;99.90;;;;;;4962638;28;20036;-58
2023/02/21 03:24:32;;;;;;;18.27;12.00;;;9.70;99.90;;;;;;4974600;28;20069;-55
2023/02/21 03:27:21;;;;;;;16.90;12.45;;;9.70;99.90;;;;;;4974288;28;20507;-55
2023/02/21 03:30:08;;;;;;;16.23;12.25;;;9.70;99.90;;;;;;4974373;28;20031;-57
2023/02/21 03:32:55;;;;;;;20.75;13.60;;;9.70;99.90;;;;;;4974148;28;20034;-51
2023/02/21 03:35:42;;;;;;;18.20;14.20;;;9.80;99.90;;;;;;4974127;28;20038;-52
2023/02/21 03:38:30;;;;;;;17.75;12.73;;;9.70;99.90;;;;;;4972587;28;20114;-54
2023/02/21 03:41:16;;;;;;;17.42;12.57;;;9.70;99.90;;;;;;4975071;28;20030;-56
2023/02/21 03:44:02;;;;;;;18.15;13.48;;;9.70;99.90;;;;;;4973699;28;20037;-54
2023/02/21 03:46:47;;;;;;;20.02;14.20;;;9.70;99.90;;;;;;4973357;28;20070;-56
2023/02/21 03:49:33;;;;;;;18.00;12.52;;;9.70;99.90;;;;;;4973588;28;20035;-56
2023/02/21 03:52:19;;;;;;;18.55;13.02;;;9.60;99.90;;;;;;4973278;28;20113;-55
2023/02/21 03:55:07;;;;;;;16.90;12.05;;;9.60;99.90;;;;;;4973663;28;20098;-57
2023/02/21 03:57:53;;;;;;;16.30;12.95;;;9.60;99.90;;;;;;4973295;28;20027;-52
2023/02/21 04:00:39;;;;;;;18.05;13.55;;;9.60;99.90;;;;;;4974064;28;20027;-51
2023/02/21 04:03:25;;;;;;;19.40;13.98;;;9.50;99.90;;;;;;4972565;28;20034;-54
2023/02/21 04:06:10;;;;;;;17.90;12.30;;;9.50;99.90;;;;;;4972580;28;20062;-54
2023/02/21 04:08:56;;;;;;;19.48;12.63;;;9.50;99.90;;;;;;4972347;28;20031;-53
2023/02/21 04:11:44;;;;;;;17.67;12.45;;;9.50;99.90;;;;;;4973514;28;20031;-55
2023/02/21 04:14:29;;;;;;;19.92;14.05;;;9.50;99.90;;;;;;4974304;28;20058;-52
2023/02/21 04:17:16;;;;;;;18.38;13.95;;;9.50;99.90;;;;;;4972417;28;20081;-55
2023/02/21 04:20:02;;;;;;;22.02;14.93;;;9.50;99.90;;;;;;4973211;28;20027;-55
2023/02/21 04:22:48;;;;;;;19.67;13.90;;;9.50;99.90;;;;;;4954209;29;20172;-56
2023/02/21 04:25:34;;;;;;;18.70;13.52;;;9.50;99.90;;;;;;4958193;28;20432;-54
2023/02/21 04:28:20;;;;;;;20.00;14.95;;;9.40;99.90;;;;;;4972525;28;20038;-53
2023/02/21 04:31:06;;;;;;;20.50;14.85;;;9.50;99.90;;;;;;4974133;28;20065;-55
2023/02/21 04:33:52;;;;;;;20.65;14.77;;;9.50;99.90;;;;;;4972694;28;20026;-55
2023/02/21 04:36:38;;;;;;;20.63;14.65;;;9.40;99.90;;;;;;4973125;28;20054;-52
2023/02/21 04:39:24;;;;;;;21.38;14.27;;;9.40;99.90;;;;;;4973907;28;20455;-51
2023/02/21 04:42:10;;;;;;;18.58;14.48;;;9.50;99.90;;;;;;4975550;28;20023;-55
2023/02/21 04:44:56;;;;;;;20.05;14.38;;;9.50;99.90;;;;;;4959192;28;20455;-55
2023/02/21 04:47:42;;;;;;;18.75;14.00;;;9.50;99.90;;;;;;4960646;28;20049;-53
2023/02/21 04:50:28;;;;;;;18.67;13.50;;;9.40;99.90;;;;;;4974337;28;20037;-51
2023/02/21 04:53:14;;;;;;;18.17;13.52;;;9.50;99.90;;;;;;4973337;28;20034;-53
2023/02/21 04:56:00;;;;;;;19.02;14.20;;;9.50;99.90;;;;;;4974233;28;20019;-54
2023/02/21 04:58:47;;;;;;;19.25;14.30;;;9.60;99.90;;;;;;4959903;28;20027;-53
2023/02/21 05:01:33;;;;;;;19.33;15.07;;;9.60;99.90;;;;;;4975346;28;20111;-56
2023/02/21 05:04:19;;;;;;;20.08;14.88;;;9.60;99.90;;;;;;4971680;28;20027;-51
2023/02/21 05:07:05;;;;;;;22.05;15.70;;;9.50;99.90;;;;;;4972194;28;20034;-54
2023/02/21 05:09:51;;;;;;;21.00;15.10;;;9.60;99.90;;;;;;4973706;28;20042;-52
2023/02/21 05:12:38;;;;;;;21.80;15.90;;;9.50;99.90;;;;;;4972654;28;20573;-54
2023/02/21 05:15:24;;;;;;;23.35;16.13;;;9.60;99.90;;;;;;4960714;28;20027;-52
2023/02/21 05:18:10;;;;;;;22.65;15.73;;;9.50;99.90;;;;;;4972037;28;20138;-54
2023/02/21 05:20:56;;;;;;;24.67;17.27;;;9.50;99.90;;;;;;4958198;28;20051;-53
2023/02/21 05:23:54;;;;;;;23.33;16.63;;;9.50;99.90;;;;;;4971919;28;20035;-55
2023/02/21 05:26:40;;;;;;;24.65;17.45;;;9.60;99.90;;;;;;4971483;28;20499;-57
2023/02/21 05:29:26;;;;;;;22.05;16.88;;;9.60;99.90;;;;;;4973090;28;20042;-51
2023/02/21 05:32:12;;;;;;;24.67;16.88;;;9.70;99.90;;;;;;4971757;28;20067;-56
2023/02/21 05:34:58;;;;;;;23.02;17.17;;;9.60;99.90;;;;;;4971792;28;20114;-56
2023/02/21 05:37:44;;;;;;;24.65;17.75;;;9.50;99.90;;;;;;4971179;28;20411;-53
2023/02/21 05:40:30;;;;;;;24.52;17.00;;;9.50;99.90;;;;;;4972526;28;20516;-55
2023/02/21 05:43:16;;;;;;;25.88;18.42;;;9.50;99.90;;;;;;4971860;28;20054;-55
2023/02/21 05:46:02;;;;;;;26.38;18.30;;;9.50;99.90;;;;;;4953394;28;20036;-51
2023/02/21 05:48:48;;;;;;;27.00;18.40;;;9.50;99.90;;;;;;4964677;28;20046;-53
2023/02/21 05:51:37;;;;;;;24.73;17.48;;;9.50;99.90;;;;;;4971344;28;20101;-51
2023/02/21 05:54:23;;;;;;;25.25;18.75;;;9.50;99.90;;;;;;4972732;28;20113;-54
2023/02/21 05:57:09;;;;;;;32.67;18.58;;;9.50;99.90;;;;;;4970947;28;20039;-52
2023/02/21 05:59:55;;;;;;;24.52;18.17;;;9.50;99.90;;;;;;4970811;28;20031;-54
2023/02/21 06:02:41;;;;;;;27.25;19.23;;;9.50;99.90;;;;;;4972961;28;20027;-55
2023/02/21 06:05:27;;;;;;;26.92;19.63;;;9.60;99.90;;;;;;4956380;29;20110;-54
2023/02/21 06:08:13;;;;;;;29.25;19.20;;;9.70;99.90;;;;;;4959595;28;20586;-54
2023/02/21 06:10:59;;;;;;;28.48;18.83;;;9.60;99.90;;;;;;4974411;28;20038;-55
2023/02/21 06:13:45;;;;;;;28.13;18.95;;;9.70;99.90;;;;;;4973594;28;20027;-55
2023/02/21 06:16:36;;;;;;;27.33;19.17;;;9.70;99.90;;;;;;4965440;28;20062;-56
2023/02/21 06:19:22;;;;;;;31.42;20.85;;;9.70;99.90;;;;;;4973032;28;20077;-52
2023/02/21 06:22:07;;;;;;;28.58;19.83;;;9.70;99.90;;;;;;4972441;28;20114;-54
2023/02/21 06:24:54;;;;;;;27.90;18.90;;;9.70;99.90;;;;;;4964228;28;20059;-57
2023/02/21 06:27:40;;;;;;;28.95;18.58;;;9.80;99.90;;;;;;4969153;28;20026;-54
2023/02/21 06:30:26;;;;;;;29.50;20.48;;;9.70;99.90;;;;;;4976216;28;20113;-55
2023/02/21 06:33:12;;;;;;;30.95;20.88;;;9.70;99.90;;;;;;4977679;28;20517;-56
2023/02/21 06:36:01;;;;;;;29.40;19.00;;;9.70;99.90;;;;;;4959743;29;20055;-56
2023/02/21 06:38:50;;;;;;;32.10;19.75;;;9.70;99.90;;;;;;4961362;28;20092;-57
2023/02/21 06:41:36;;;;;;;31.52;21.27;;;9.60;99.90;;;;;;4965473;28;22021;-56
2023/02/21 06:44:22;;;;;;;29.77;20.65;;;9.60;99.90;;;;;;4975242;28;20391;-59
2023/02/21 06:47:08;;;;;;;29.70;19.70;;;9.70;99.90;;;;;;4956832;29;20087;-51
2023/02/21 06:49:54;;;;;;;30.45;21.08;;;9.80;99.90;;;;;;4969442;28;20117;-55
2023/02/21 06:52:40;;;;;;;28.95;18.70;;;9.80;99.90;;;;;;4967980;28;20061;-57
2023/02/21 06:55:25;;;;;;;26.98;18.38;;;9.80;99.90;;;;;;4974177;28;20045;-55
2023/02/21 06:58:11;;;;;;;27.80;18.88;;;9.80;99.90;;;;;;4973876;28;20027;-58
2023/02/21 07:00:57;;;;;;;26.95;18.42;;;9.90;99.90;;;;;;4974004;28;20027;-55
2023/02/21 07:03:44;;;;;;;27.88;19.27;;;9.80;99.90;;;;;;4962019;28;20429;-57
2023/02/21 07:06:32;;;;;;;26.95;18.48;;;9.80;99.90;;;;;;4955762;29;20511;-56
2023/02/21 07:09:18;;;;;;;27.25;19.23;;;9.80;99.90;;;;;;4974158;28;20062;-54
2023/02/21 07:12:04;;;;;;;27.10;19.10;;;9.80;99.90;;;;;;4975327;28;20041;-55
2023/02/21 07:14:50;;;;;;;28.67;18.85;;;9.80;99.90;;;;;;4954926;29;20038;-56
2023/02/21 07:17:36;;;;;;;28.35;17.98;;;9.80;99.90;;;;;;4967247;28;20059;-56
2023/02/21 07:20:22;;;;;;;26.95;18.00;;;10.00;99.90;;;;;;4960137;28;20030;-55
2023/02/21 07:23:08;;;;;;;23.35;16.27;;;10.00;99.90;;;;;;4974757;28;20035;-55
2023/02/21 07:25:53;;;;;;;24.63;17.23;;;10.00;99.90;;;;;;4956146;28;20500;-50
2023/02/21 07:28:40;;;;;;;22.98;17.08;;;10.00;99.90;;;;;;4968050;28;20491;-56
2023/02/21 07:31:26;;;;;;;25.65;17.30;;;10.00;99.90;;;;;;4971557;28;20089;-56
2023/02/21 07:34:13;;;;;;;27.05;15.63;;;10.00;99.90;;;;;;4963284;28;20034;-52
2023/02/21 07:36:59;;;;;;;26.52;15.98;;;10.00;99.90;;;;;;4968900;28;20038;-57
2023/02/21 07:39:45;;;;;;;22.90;15.63;;;10.10;99.90;;;;;;4972746;28;20109;-53
2023/02/21 07:42:32;;;;;;;21.77;15.88;;;10.20;99.90;;;;;;4973049;28;20026;-51
2023/02/21 07:45:17;;;;;;;23.33;16.13;;;10.00;99.90;;;;;;4972943;28;20074;-55
2023/02/21 07:48:04;;;;;;;25.80;17.90;;;10.00;99.90;;;;;;4972716;28;20087;-56
2023/02/21 07:50:50;;;;;;;25.73;16.20;;;10.00;99.90;;;;;;4957849;28;20027;-55
2023/02/21 07:53:36;;;;;;;23.75;16.67;;;10.00;99.90;;;;;;4973245;28;20518;-52
2023/02/21 07:56:22;;;;;;;24.67;14.90;;;10.10;99.90;;;;;;4972534;28;20067;-51
2023/02/21 07:59:08;;;;;;;22.15;15.05;;;10.00;99.90;;;;;;4973243;28;20034;-54
2023/02/21 08:01:54;;;;;;;25.58;15.77;;;10.10;99.90;;;;;;4973014;28;20046;-58
2023/02/21 08:04:41;;;;;;;22.88;15.90;;;10.10;99.90;;;;;;4971544;28;20035;-52
2023/02/21 08:07:28;;;;;;;21.90;15.70;;;10.10;99.90;;;;;;4967591;28;20031;-54
2023/02/21 08:10:22;;;;;;;23.73;16.88;;;10.20;99.90;;;;;;4973312;28;20039;-54
2023/02/21 08:13:08;;;;;;;22.50;16.13;;;10.40;99.90;;;;;;4970508;28;20033;-55
2023/02/21 08:15:55;;;;;;;24.20;15.73;;;10.40;99.90;;;;;;4966643;28;20043;-55
2023/02/21 08:18:41;;;;;;;24.23;16.67;;;10.40;99.90;;;;;;4973519;28;20034;-53
2023/02/21 08:21:27;;;;;;;27.77;18.48;;;10.30;99.90;;;;;;4966187;28;20027;-55
2023/02/21 08:24:14;;;;;;;23.92;15.07;;;10.30;99.90;;;;;;4972224;28;20051;-54
2023/02/21 08:26:59;;;;;;;24.75;16.33;;;10.40;99.90;;;;;;4972020;28;20030;-57
2023/02/21 08:29:49;;;;;;;23.90;17.17;;;10.30;99.90;;;;;;4966550;28;20559;-54
2023/02/21 08:32:35;;;;;;;24.33;16.10;;;10.30;99.90;;;;;;4970827;28;20542;-53
2023/02/21 08:35:21;;;;;;;23.20;15.70;;;10.40;99.90;;;;;;4965236;28;20046;-54
2023/02/21 08:38:09;;;;;;;24.67;16.20;;;10.40;99.90;;;;;;4972100;28;20023;-59
2023/02/21 08:40:56;;;;;;;22.25;15.15;;;10.50;99.90;;;;;;4970970;28;20542;-56
2023/02/21 08:43:42;;;;;;;26.73;16.17;;;10.50;99.90;;;;;;4971605;28;20035;-58
2023/02/21 08:46:28;;;;;;;23.45;16.35;;;10.50;99.90;;;;;;4970887;28;20065;-57
2023/02/21 08:49:15;;;;;;;25.17;17.20;;;10.50;99.90;;;;;;4971061;28;20043;-58
2023/02/21 08:52:00;;;;;;;23.88;16.10;;;10.60;99.90;;;;;;4967778;28;20039;-57
2023/02/21 08:54:47;;;;;;;25.50;16.92;;;10.50;99.90;;;;;;4959736;28;20499;-54
2023/02/21 08:57:33;;;;;;;24.70;16.70;;;10.60;99.90;;;;;;4965356;28;20114;-60
2023/02/21 09:00:27;;;;;;;25.23;15.95;;;10.50;99.90;;;;;;4963500;28;20039;-60
2023/02/21 09:03:13;;;;;;;24.77;15.25;;;10.70;99.90;;;;;;4971670;28;20121;-55
2023/02/21 09:05:59;;;;;;;21.15;15.00;;;10.60;99.90;;;;;;4953877;28;20075;-56
2023/02/21 09:08:45;;;;;;;24.02;16.17;;;10.70;99.90;;;;;;4953671;28;20050;-57
2023/02/21 09:11:31;;;;;;;22.13;15.55;;;10.70;99.90;;;;;;4965256;28;20042;-56
2023/02/21 09:14:17;;;;;;;20.52;14.43;;;10.60;99.90;;;;;;4964815;28;20530;-55
2023/02/21 09:17:05;;;;;;;26.63;16.27;;;10.60;99.90;;;;;;4965200;28;20586;-57
2023/02/21 09:19:51;;;;;;;23.13;15.77;;;10.60;99.90;;;;;;4972077;28;20023;-55
2023/02/21 09:22:37;;;;;;;22.60;14.50;;;10.60;99.90;;;;;;4970737;28;20031;-56
2023/02/21 09:25:24;;;;;;;24.08;15.93;;;10.70;99.90;;;;;;4963594;28;20395;-57
2023/02/21 09:28:09;;;;;;;24.98;16.80;;;10.70;99.90;;;;;;4969987;28;20492;-57
2023/02/21 09:30:55;;;;;;;22.73;15.77;;;10.80;99.90;;;;;;4971229;28;20031;-56
2023/02/21 09:33:42;;;;;;;24.05;16.65;;;10.70;99.90;;;;;;4958163;28;20131;-57
2023/02/21 09:36:28;;;;;;;25.15;16.77;;;10.80;99.90;;;;;;4965605;28;20041;-56
2023/02/21 09:39:15;;;;;;;24.38;16.27;;;11.00;99.90;;;;;;4973534;28;20023;-53
2023/02/21 09:42:01;;;;;;;21.27;15.02;;;11.10;99.90;;;;;;4967567;28;20140;-57
2023/02/21 09:44:47;;;;;;;21.35;14.95;;;11.10;99.90;;;;;;4973294;28;20023;-57
2023/02/21 09:47:39;;;;;;;24.95;16.42;;;11.00;99.90;;;;;;4973388;28;20411;-58
2023/02/21 09:50:32;;;;;;;22.55;14.80;;;11.00;99.90;;;;;;4964888;28;20106;-58
2023/02/21 09:53:25;;;;;;;24.17;14.98;;;11.00;99.90;;;;;;4973001;28;20038;-58
2023/02/21 09:56:25;;;;;;;21.65;13.52;;;11.00;99.90;;;;;;4967326;28;20027;-58
2023/02/21 09:59:12;;;;;;;20.45;13.63;;;11.00;99.90;;;;;;4971181;28;20507;-56
2023/02/21 10:02:43;;;;;;;24.40;14.63;;;11.10;99.90;;;;;;4970019;28;20031;-57
2023/02/21 10:05:59;;;;;;;20.50;14.02;;;11.20;99.90;;;;;;4974071;28;20076;-57
2023/02/21 10:08:45;;;;;;;21.83;13.15;;;11.20;99.90;;;;;;4967985;28;20564;-59
2023/02/21 10:11:53;;;;;;;18.63;12.65;;;11.30;99.90;;;;;;4974462;28;20023;-55
2023/02/21 10:15:26;;;;;;;20.33;13.35;;;11.20;99.90;;;;;;4968355;28;20475;-57
2023/02/21 10:19:09;;;;;;;22.67;14.52;;;11.30;99.90;;;;;;4985012;28;20029;-57
2023/02/21 10:21:57;;;;;;;22.20;13.88;;;11.20;99.90;;;;;;4894909;29;20040;-57
2023/02/21 10:24:43;;;;;;;23.58;14.85;;;11.40;99.90;;;;;;4965784;28;20050;-55
2023/02/21 10:27:32;;;;;;;25.13;14.10;;;11.60;99.90;;;;;;4968778;28;20519;-57
2023/02/21 10:30:39;;;;;;;20.73;13.80;;;11.70;99.90;;;;;;4952386;28;20030;-54
2023/02/21 10:33:26;;;;;;;21.25;14.60;;;11.70;99.90;;;;;;4956011;28;20535;-52
2023/02/21 10:36:17;;;;;;;19.50;13.70;;;11.60;99.90;;;;;;4955382;28;20042;-56
2023/02/21 10:39:17;;;;;;;24.65;13.73;;;11.50;99.90;;;;;;4971986;28;20123;-57
2023/02/21 10:42:03;;;;;;;20.67;13.65;;;11.50;99.90;;;;;;4961950;28;20035;-52
2023/02/21 10:44:51;;;;;;;21.60;13.82;;;11.50;99.90;;;;;;4966960;28;20039;-57
2023/02/21 10:47:59;;;;;;;19.70;12.98;;;11.50;99.90;;;;;;4969049;28;20081;-57
2023/02/21 10:50:51;;;;;;;17.45;12.80;;;11.60;99.90;;;;;;4962593;28;20068;-55
2023/02/21 10:53:43;;;;;;;17.63;12.38;;;11.50;99.90;;;;;;4955507;28;20381;-56
2023/02/21 10:56:29;;;;;;;21.70;13.95;;;11.50;99.90;;;;;;4973361;28;20038;-52
2023/02/21 10:59:29;;;;;;;18.50;13.00;;;11.50;99.90;;;;;;4973040;28;20058;-55
2023/02/21 11:02:43;;;;;;;20.02;12.95;;;11.50;99.90;;;;;;4974055;28;20035;-55
2023/02/21 11:05:29;;;;;;;22.45;13.73;;;11.70;99.90;;;;;;4974375;28;20810;-55
2023/02/21 11:08:34;;;;;;;21.20;13.85;;;11.70;99.90;;;;;;4974014;28;20384;-56
2023/02/21 11:11:34;;;;;;;19.27;13.73;;;11.70;99.90;;;;;;4955469;28;20042;-57
2023/02/21 11:14:23;;;;;;;18.60;13.05;;;11.90;99.90;;;;;;4961005;28;20033;-55
2023/02/21 11:17:18;;;;;;;19.48;13.02;;;11.90;99.90;;;;;;4973778;28;20026;-52
2023/02/21 11:20:19;;;;;;;20.92;13.55;;;11.70;99.90;;;;;;4974597;28;20035;-56
2023/02/21 11:23:22;;;;;;;18.42;13.10;;;11.70;99.90;;;;;;4974327;28;20132;-56
2023/02/21 11:26:10;;;;;;;19.95;12.55;;;12.00;99.90;;;;;;4973962;28;20023;-55
2023/02/21 11:29:08;;;;;;;19.20;12.95;;;12.10;99.90;;;;;;4973821;28;20081;-56
2023/02/21 11:31:55;;;;;;;19.80;12.88;;;12.30;99.90;;;;;;4955085;28;20035;-53
2023/02/21 11:34:47;;;;;;;22.08;13.68;;;12.30;99.90;;;;;;4960166;28;20468;-55
2023/02/21 11:37:46;;;;;;;19.17;12.82;;;12.20;99.90;;;;;;4973804;28;20034;-56
2023/02/21 11:40:36;;;;;;;19.77;13.50;;;12.20;99.90;;;;;;4973329;28;20035;-58
2023/02/21 11:43:27;;;;;;;16.75;11.65;;;12.10;99.90;;;;;;4972896;28;20042;-55
2023/02/21 11:46:46;;;;;;;17.33;12.30;;;12.40;99.90;;;;;;4972284;28;20030;-54
2023/02/21 11:49:54;;;;;;;22.17;12.50;;;12.50;99.90;;;;;;4957791;28;20038;-57
2023/02/21 11:52:42;;;;;;;18.58;11.50;;;12.70;99.90;;;;;;4973442;28;20050;-51
2023/02/21 11:55:28;;;;;;;15.52;10.60;;;12.60;99.90;;;;;;4968106;28;20476;-54
2023/02/21 11:58:27;;;;;;;17.98;11.00;;;12.30;99.90;;;;;;4953633;29;20038;-53
2023/02/21 12:01:21;;;;;;;16.40;11.10;;;12.40;99.90;;;;;;4959521;28;20116;-54
2023/02/21 12:04:12;;;;;;;18.92;12.02;;;12.40;99.90;;;;;;4973210;28;20432;-53
2023/02/21 12:07:17;;;;;;;15.68;10.88;;;12.50;99.90;;;;;;4972320;28;20027;-55
2023/02/21 12:10:29;;;;;;;17.17;10.82;;;12.30;99.90;;;;;;4973250;28;20057;-55
2023/02/21 12:13:26;;;;;;;18.15;10.85;;;12.30;99.90;;;;;;4974119;28;20511;-56
2023/02/21 12:16:58;;;;;;;15.80;10.82;;;12.50;99.90;;;;;;4972592;28;20027;-54
2023/02/21 12:20:06;;;;;;;15.55;11.27;;;12.30;99.90;;;;;;4972194;28;20066;-54
2023/02/21 12:23:28;;;;;;;17.40;10.90;;;12.30;99.90;;;;;;4972039;28;20058;-56
2023/02/21 12:26:27;;;;;;;15.85;11.23;;;12.30;99.90;;;;;;4972098;28;20031;-53
2023/02/21 12:29:26;;;;;;;14.63;10.40;;;12.40;99.90;;;;;;4954849;28;20027;-57
2023/02/21 12:32:41;;;;;;;15.48;10.68;;;12.40;99.90;;;;;;4971796;28;20027;-57
2023/02/21 12:35:47;;;;;;;15.20;9.35;;;12.50;99.90;;;;;;4973904;28;20403;-54
2023/02/21 12:38:45;;;;;;;12.70;9.50;;;12.50;99.90;;;;;;4971374;28;20038;-53
2023/02/21 12:41:51;;;;;;;14.48;9.63;;;12.60;99.90;;;;;;4972883;28;20019;-54
2023/02/21 12:45:01;;;;;;;12.10;8.15;;;12.40;99.90;;;;;;4953101;29;20027;-55
2023/02/21 12:48:14;;;;;;;11.35;7.60;;;12.60;99.90;;;;;;4960164;28;20106;-57
2023/02/21 12:51:05;;;;;;;10.70;7.55;;;12.60;99.90;;;;;;4973628;28;20022;-54
2023/02/21 12:54:02;;;;;;;10.85;7.20;;;12.70;99.90;;;;;;4972333;28;20031;-58
2023/02/21 12:57:03;;;;;;;11.00;7.65;;;12.70;99.90;;;;;;4969705;28;20372;-53
2023/02/21 12:59:57;;;;;;;12.80;8.00;;;12.70;99.90;;;;;;4966019;28;20023;-51
2023/02/21 13:02:58;;;;;;;12.45;9.07;;;12.80;99.90;;;;;;4972860;28;20114;-56
2023/02/21 13:06:09;;;;;;;13.02;9.02;;;12.80;99.90;;;;;;4966033;28;20638;-50
2023/02/21 13:09:23;;;;;;;13.20;9.13;;;12.90;99.90;;;;;;4957056;28;20051;-51
2023/02/21 13:12:20;;;;;;;14.43;8.35;;;12.90;99.90;;;;;;4967983;28;20022;-51
2023/02/21 13:15:18;;;;;;;11.20;8.02;;;12.80;99.90;;;;;;4963767;28;20035;-52
2023/02/21 13:18:09;;;;;;;12.43;8.60;;;12.80;99.90;;;;;;4971093;28;20139;-50
2023/02/21 13:21:16;;;;;;;10.32;7.63;;;12.80;99.90;;;;;;4971489;28;20110;-54
2023/02/21 13:24:28;;;;;;;12.20;8.65;;;12.70;99.90;;;;;;4972579;28;20027;-51
2023/02/21 13:27:48;;;;;;;11.27;8.05;;;12.90;99.90;;;;;;4965338;28;20426;-48
2023/02/21 13:30:40;;;;;;;12.68;7.30;;;12.70;99.90;;;;;;4971370;28;20023;-54
2023/02/21 13:33:51;;;;;;;11.05;7.38;;;12.80;99.90;;;;;;4971437;28;20479;-54
2023/02/21 13:36:37;;;;;;;12.95;7.82;;;12.80;99.90;;;;;;4952973;29;20035;-52
2023/02/21 13:39:35;;;;;;;11.98;7.70;;;12.90;99.90;;;;;;4959297;28;20400;-53
2023/02/21 13:42:24;;;;;;;12.18;8.10;;;13.00;99.90;;;;;;4973024;28;20078;-56
2023/02/21 13:45:24;;;;;;;10.90;7.32;;;13.10;99.90;;;;;;4973492;28;20031;-49
2023/02/21 13:48:26;;;;;;;19.27;8.27;;;13.00;99.90;;;;;;4973153;28;20162;-53
2023/02/21 13:51:47;;;;;;;11.15;8.10;;;13.00;99.90;;;;;;4972504;28;20177;-56
2023/02/21 13:54:33;;;;;;;10.38;7.10;;;13.00;99.90;;;;;;4953508;28;20062;-54
2023/02/21 13:57:30;;;;;;;8.55;5.43;;;13.00;99.90;;;;;;4954825;28;20484;-54
2023/02/21 14:00:25;;;;;;;8.82;6.13;;;13.00;99.90;;;;;;4971318;28;20031;-49
2023/02/21 14:03:16;;;;;;;5.75;3.95;;;13.10;99.90;;;;;;4971906;28;20419;-53
2023/02/21 14:06:08;;;;;;;4.75;3.70;;;13.10;99.90;;;;;;4971381;28;20511;-52
2023/02/21 14:09:00;;;;;;;7.05;4.10;;;13.10;99.90;;;;;;4971878;28;20030;-52
2023/02/21 14:11:49;;;;;;;6.15;4.03;;;13.10;99.90;;;;;;4967801;28;20031;-52
2023/02/21 14:14:38;;;;;;;7.45;4.38;;;13.10;99.90;;;;;;4971483;28;20062;-53
2023/02/21 14:17:28;;;;;;;5.90;4.30;;;13.10;99.90;;;;;;4973609;28;20027;-52
2023/02/21 14:20:21;;;;;;;5.68;4.47;;;13.30;99.90;;;;;;4963008;28;20038;-53
2023/02/21 14:23:16;;;;;;;6.25;4.63;;;13.20;99.90;;;;;;4973540;28;20033;-50
2023/02/21 14:26:03;;;;;;;;;;;13.40;99.90;;;;;;4967801;28;20035;-50
2023/02/21 14:29:00;;;;;;;5.75;4.43;;;13.10;99.90;;;;;;4975741;28;19914;-56
2023/02/21 14:31:55;;;;;;;6.25;4.65;;;13.00;99.90;;;;;;4968055;28;20034;-55
2023/02/21 14:34:47;;;;;;;5.57;4.60;;;13.00;99.90;;;;;;4954679;29;20031;-52
2023/02/21 14:37:39;;;;;;;11.48;5.57;;;13.00;99.90;;;;;;4969496;28;20499;-53
2023/02/21 14:40:31;;;;;;;9.20;6.03;;;12.90;99.90;;;;;;4974204;28;20384;-52
2023/02/21 14:43:31;;;;;;;7.05;5.20;;;12.90;99.90;;;;;;4975000;28;20027;-50
2023/02/21 14:46:29;;;;;;;6.47;4.88;;;12.90;99.90;;;;;;4974115;28;20030;-53
2023/02/21 14:49:39;;;;;;;7.18;5.15;;;12.80;99.90;;;;;;4975620;28;20092;-53
2023/02/21 14:52:58;;;;;;;8.02;5.00;;;12.80;99.90;;;;;;4974729;28;20027;-52
2023/02/21 14:55:56;;;;;;;7.18;5.28;;;12.80;99.90;;;;;;4974982;28;20039;-51
2023/02/21 14:59:00;;;;;;;5.18;3.85;;;12.70;99.90;;;;;;4974807;28;20023;-50
2023/02/21 15:01:55;;;;;;;5.50;4.18;;;12.80;99.90;;;;;;4974954;28;20109;-51
2023/02/21 15:05:09;;;;;;;5.13;3.90;;;12.60;99.90;;;;;;4974826;28;20027;-50
2023/02/21 15:07:55;;;;;;;6.30;4.47;;;12.80;99.90;;;;;;4974416;28;20431;-53
2023/02/21 15:10:43;;;;;;;6.40;4.32;;;12.80;99.90;;;;;;4975263;28;20034;-50
2023/02/21 15:13:32;;;;;;;5.97;4.22;;;12.90;99.90;;;;;;4974958;28;20023;-56
2023/02/21 15:16:18;;;;;;;7.32;5.22;;;12.80;99.90;;;;;;4976857;28;20484;-53
2023/02/21 15:19:04;;;;;;;6.20;4.20;;;12.80;99.90;;;;;;4976251;28;20038;-54
2023/02/21 15:22:22;;;;;;;7.35;4.40;;;12.80;99.90;;;;;;4974802;28;20230;-55
2023/02/21 15:25:08;;;;;;;7.03;5.25;;;12.80;99.90;;;;;;4974625;28;20027;-51
2023/02/21 15:27:58;;;;;;;6.15;4.65;;;12.80;99.90;;;;;;4974075;28;20554;-51
2023/02/21 15:31:04;;;;;;;8.15;4.97;;;12.70;99.90;;;;;;4974611;28;20089;-50
2023/02/21 15:33:51;;;;;;;7.88;5.00;;;12.50;99.90;;;;;;4974315;28;20050;-54
2023/02/21 15:36:37;;;;;;;7.97;5.50;;;12.50;99.90;;;;;;4974349;28;20027;-55
2023/02/21 15:39:27;;;;;;;7.18;5.05;;;12.50;99.90;;;;;;4974201;28;20038;-51
2023/02/21 15:42:16;;;;;;;6.25;5.03;;;12.30;99.90;;;;;;4973398;28;20026;-49
2023/02/21 15:45:15;;;;;;;9.52;5.32;;;12.40;99.90;;;;;;4974266;28;20038;-52
2023/02/21 15:48:02;;;;;;;7.93;5.30;;;12.50;99.90;;;;;;4973590;28;20029;-52
2023/02/21 15:50:49;;;;;;;6.85;5.70;;;12.40;99.90;;;;;;4974796;28;20038;-48
2023/02/21 15:53:35;;;;;;;6.93;5.82;;;12.50;99.90;;;;;;4971941;28;20573;-49
2023/02/21 15:56:27;;;;;;;7.50;5.50;;;12.50;99.90;;;;;;4973918;28;20115;-52
2023/02/21 15:59:25;;;;;;;10.13;6.70;;;12.40;99.90;;;;;;4955116;28;20126;-52
2023/02/21 16:02:12;;;;;;;7.97;5.88;;;12.60;99.90;;;;;;4965342;28;20023;-49
2023/02/21 16:04:58;;;;;;;7.60;6.10;;;12.60;99.90;;;;;;4974652;28;20022;-52
2023/02/21 16:07:47;;;;;;;8.13;6.30;;;12.70;99.90;;;;;;4972854;28;20037;-51
2023/02/21 16:10:33;;;;;;;11.05;7.05;;;12.60;99.90;;;;;;4974583;28;20034;-49
2023/02/21 16:13:19;;;;;;;12.20;7.30;;;12.60;99.90;;;;;;4973247;28;20530;-58
2023/02/21 16:16:07;;;;;;;9.70;6.95;;;12.50;99.90;;;;;;4976573;28;20069;-53
2023/02/21 16:18:55;;;;;;;11.40;7.38;;;12.50;99.90;;;;;;4974292;28;20033;-52
2023/02/21 16:21:41;;;;;;;13.07;7.75;;;12.50;99.90;;;;;;4975939;28;20027;-53
2023/02/21 16:24:31;;;;;;;11.18;8.10;;;12.60;99.90;;;;;;4975438;28;20059;-53
2023/02/21 16:27:17;;;;;;;8.90;6.93;;;12.70;99.90;;;;;;4978195;28;20499;-50
2023/02/21 16:30:06;;;;;;;11.18;7.70;;;12.60;99.90;;;;;;4978541;28;20490;-54
2023/02/21 16:32:57;;;;;;;10.75;7.68;;;12.60;99.90;;;;;;4976184;28;20423;-54
2023/02/21 16:35:43;;;;;;;10.57;8.05;;;12.40;99.90;;;;;;4977773;28;20515;-51
2023/02/21 16:38:30;;;;;;;10.00;7.68;;;12.20;99.90;;;;;;4977696;28;20043;-53
2023/02/21 16:41:16;;;;;;;9.68;7.55;;;12.20;99.90;;;;;;4975283;28;20075;-54
2023/02/21 16:44:02;;;;;;;10.30;7.20;;;12.10;99.90;;;;;;4976096;28;20038;-50
2023/02/21 16:46:50;;;;;;;12.23;7.22;;;12.00;99.90;;;;;;4975207;28;20030;-53
2023/02/21 16:49:36;;;;;;;7.90;6.43;;;12.00;99.90;;;;;;4973482;28;20523;-58
2023/02/21 16:52:22;;;;;;;9.55;7.38;;;11.90;99.90;;;;;;4973190;28;20069;-54
2023/02/21 16:55:12;;;;;;;8.93;6.63;;;11.90;99.90;;;;;;4977168;28;20128;-53